sensor_id;sensor_type;location;lat;lon;timestamp;temperature;humidity
16283;DHT22;8249;48.708;9.030;2022-08-11T00:02:31;17.30;96.30
16283;DHT22;8249;48.708;9.030;2022-08-11T00:05:03;17.30;96.40
16283;DHT22;8249;48.708;9.030;2022-08-11T00:07:31;17.30;96.40
16283;DHT22;8249;48.708;9.030;2022-08-11T00:09:59;17.20;96.50
16283;DHT22;8249;48.708;9.030;2022-08-11T00:12:27;17.30;96.30
16283;DHT22;8249;48.708;9.030;2022-08-11T00:14:57;17.30;95.70
16283;DHT22;8249;48.708;9.030;2022-08-11T00:17:30;17.40;95.70
16283;DHT22;8249;48.708;9.030;2022-08-11T00:20:07;17.40;95.80
16283;DHT22;8249;48.708;9.030;2022-08-11T00:22:36;17.40;95.20
16283;DHT22;8249;48.708;9.030;2022-08-11T00:25:09;17.40;95.50
16283;DHT22;8249;48.708;9.030;2022-08-11T00:27:38;17.40;95.20
16283;DHT22;8249;48.708;9.030;2022-08-11T00:30:08;17.40;95.40
16283;DHT22;8249;48.708;9.030;2022-08-11T00:32:37;17.40;95.20
16283;DHT22;8249;48.708;9.030;2022-08-11T00:35:06;17.30;95.80
16283;DHT22;8249;48.708;9.030;2022-08-11T00:37:34;17.30;96.00
16283;DHT22;8249;48.708;9.030;2022-08-11T00:40:06;17.30;95.90
16283;DHT22;8249;48.708;9.030;2022-08-11T00:42:47;17.30;95.90
16283;DHT22;8249;48.708;9.030;2022-08-11T00:45:25;17.30;95.80
16283;DHT22;8249;48.708;9.030;2022-08-11T00:48:01;17.30;95.80
16283;DHT22;8249;48.708;9.030;2022-08-11T00:50:38;17.30;95.70
16283;DHT22;8249;48.708;9.030;2022-08-11T00:53:24;17.30;95.70
16283;DHT22;8249;48.708;9.030;2022-08-11T00:56:17;17.30;95.70
16283;DHT22;8249;48.708;9.030;2022-08-11T01:01:56;17.30;95.90
16283;DHT22;8249;48.708;9.030;2022-08-11T01:11:01;17.20;96.50
16283;DHT22;8249;48.708;9.030;2022-08-11T01:17:03;17.10;96.80
16283;DHT22;8249;48.708;9.030;2022-08-11T01:20:02;17.00;96.90
16283;DHT22;8249;48.708;9.030;2022-08-11T01:25:58;17.00;97.20
16283;DHT22;8249;48.708;9.030;2022-08-11T01:32:06;17.00;97.50
16283;DHT22;8249;48.708;9.030;2022-08-11T01:38:18;16.90;98.00
16283;DHT22;8249;48.708;9.030;2022-08-11T01:41:24;16.90;98.20
16283;DHT22;8249;48.708;9.030;2022-08-11T01:47:44;16.80;98.80
16283;DHT22;8249;48.708;9.030;2022-08-11T01:53:27;16.80;99.20
16283;DHT22;8249;48.708;9.030;2022-08-11T01:56:05;16.70;99.50
16283;DHT22;8249;48.708;9.030;2022-08-11T01:58:42;16.70;99.70
16283;DHT22;8249;48.708;9.030;2022-08-11T02:01:27;16.60;99.90
16283;DHT22;8249;48.708;9.030;2022-08-11T02:04:06;16.60;99.90
16283;DHT22;8249;48.708;9.030;2022-08-11T02:06:43;16.50;99.90
16283;DHT22;8249;48.708;9.030;2022-08-11T02:09:39;16.50;99.90
16283;DHT22;8249;48.708;9.030;2022-08-11T02:12:14;16.50;99.90
16283;DHT22;8249;48.708;9.030;2022-08-11T02:14:47;16.40;99.90
16283;DHT22;8249;48.708;9.030;2022-08-11T02:17:18;16.40;99.90
16283;DHT22;8249;48.708;9.030;2022-08-11T02:19:53;16.40;99.90
16283;DHT22;8249;48.708;9.030;2022-08-11T02:22:48;16.30;99.90
16283;DHT22;8249;48.708;9.030;2022-08-11T02:25:37;16.30;99.90
16283;DHT22;8249;48.708;9.030;2022-08-11T02:28:09;16.20;99.90
16283;DHT22;8249;48.708;9.030;2022-08-11T02:30:45;16.10;99.90
16283;DHT22;8249;48.708;9.030;2022-08-11T02:33:37;16.10;99.90
16283;DHT22;8249;48.708;9.030;2022-08-11T02:36:09;16.10;99.90
16283;DHT22;8249;48.708;9.030;2022-08-11T02:38:44;16.10;99.90
16283;DHT22;8249;48.708;9.030;2022-08-11T02:41:22;16.10;99.90
16283;DHT22;8249;48.708;9.030;2022-08-11T02:44:20;16.10;99.90
16283;DHT22;8249;48.708;9.030;2022-08-11T02:47:00;16.10;99.90
16283;DHT22;8249;48.708;9.030;2022-08-11T02:49:44;16.00;99.90
16283;DHT22;8249;48.708;9.030;2022-08-11T02:52:34;16.00;99.90
16283;DHT22;8249;48.708;9.030;2022-08-11T02:55:23;16.00;99.90
16283;DHT22;8249;48.708;9.030;2022-08-11T02:57:58;16.00;99.90
16283;DHT22;8249;48.708;9.030;2022-08-11T03:00:29;16.00;99.90
16283;DHT22;8249;48.708;9.030;2022-08-11T03:03:16;16.00;99.90
16283;DHT22;8249;48.708;9.030;2022-08-11T03:05:57;15.90;99.90
16283;DHT22;8249;48.708;9.030;2022-08-11T03:08:43;15.90;99.90
16283;DHT22;8249;48.708;9.030;2022-08-11T03:11:24;15.90;99.90
16283;DHT22;8249;48.708;9.030;2022-08-11T03:14:18;15.90;99.90
16283;DHT22;8249;48.708;9.030;2022-08-11T03:17:15;15.90;99.90
16283;DHT22;8249;48.708;9.030;2022-08-11T03:19:52;15.80;99.90
16283;DHT22;8249;48.708;9.030;2022-08-11T03:22:23;15.90;99.90
16283;DHT22;8249;48.708;9.030;2022-08-11T03:24:57;15.90;99.90
16283;DHT22;8249;48.708;9.030;2022-08-11T03:27:33;15.90;99.90
16283;DHT22;8249;48.708;9.030;2022-08-11T03:30:09;15.80;99.90
16283;DHT22;8249;48.708;9.030;2022-08-11T03:32:45;15.70;99.90
16283;DHT22;8249;48.708;9.030;2022-08-11T03:35:39;15.70;99.90
16283;DHT22;8249;48.708;9.030;2022-08-11T03:38:10;15.60;99.90
16283;DHT22;8249;48.708;9.030;2022-08-11T03:40:47;15.50;99.90
16283;DHT22;8249;48.708;9.030;2022-08-11T03:43:52;15.40;99.90
16283;DHT22;8249;48.708;9.030;2022-08-11T03:46:35;15.50;99.90
16283;DHT22;8249;48.708;9.030;2022-08-11T03:49:24;15.50;99.90
16283;DHT22;8249;48.708;9.030;2022-08-11T03:51:59;15.50;99.90
16283;DHT22;8249;48.708;9.030;2022-08-11T03:54:42;15.40;99.90
16283;DHT22;8249;48.708;9.030;2022-08-11T03:57:47;15.30;99.90
16283;DHT22;8249;48.708;9.030;2022-08-11T04:03:50;15.30;99.90
16283;DHT22;8249;48.708;9.030;2022-08-11T04:13:08;15.20;99.90
16283;DHT22;8249;48.708;9.030;2022-08-11T04:16:00;15.20;99.90
16283;DHT22;8249;48.708;9.030;2022-08-11T04:18:50;15.00;99.90
16283;DHT22;8249;48.708;9.030;2022-08-11T04:24:57;15.10;99.90
16283;DHT22;8249;48.708;9.030;2022-08-11T04:28:11;15.20;99.90
16283;DHT22;8249;48.708;9.030;2022-08-11T04:31:05;15.10;99.90
16283;DHT22;8249;48.708;9.030;2022-08-11T04:33:58;15.10;99.90
16283;DHT22;8249;48.708;9.030;2022-08-11T04:36:55;15.00;99.90
16283;DHT22;8249;48.708;9.030;2022-08-11T04:39:59;15.00;99.90
16283;DHT22;8249;48.708;9.030;2022-08-11T04:43:14;14.90;99.90
16283;DHT22;8249;48.708;9.030;2022-08-11T04:46:29;15.00;99.90
16283;DHT22;8249;48.708;9.030;2022-08-11T04:49:27;15.00;99.90
16283;DHT22;8249;48.708;9.030;2022-08-11T04:52:51;15.10;99.90
16283;DHT22;8249;48.708;9.030;2022-08-11T04:56:00;15.10;99.90
16283;DHT22;8249;48.708;9.030;2022-08-11T04:59:07;15.10;99.90
16283;DHT22;8249;48.708;9.030;2022-08-11T05:04:58;15.30;99.90
16283;DHT22;8249;48.708;9.030;2022-08-11T05:17:30;15.60;99.90
16283;DHT22;8249;48.708;9.030;2022-08-11T05:20:17;15.60;99.90
16283;DHT22;8249;48.708;9.030;2022-08-11T05:23:05;15.70;99.90
16283;DHT22;8249;48.708;9.030;2022-08-11T05:25:54;15.80;99.90
16283;DHT22;8249;48.708;9.030;2022-08-11T05:28:42;16.00;99.90
16283;DHT22;8249;48.708;9.030;2022-08-11T05:31:34;16.10;99.90
16283;DHT22;8249;48.708;9.030;2022-08-11T05:34:22;16.30;99.90
16283;DHT22;8249;48.708;9.030;2022-08-11T05:37:10;16.50;99.90
16283;DHT22;8249;48.708;9.030;2022-08-11T05:39:43;16.60;99.90
16283;DHT22;8249;48.708;9.030;2022-08-11T05:42:29;16.80;99.90
16283;DHT22;8249;48.708;9.030;2022-08-11T05:45:16;17.00;99.90
16283;DHT22;8249;48.708;9.030;2022-08-11T05:48:01;17.20;99.90
16283;DHT22;8249;48.708;9.030;2022-08-11T05:50:52;17.40;99.90
16283;DHT22;8249;48.708;9.030;2022-08-11T05:53:51;17.70;99.90
16283;DHT22;8249;48.708;9.030;2022-08-11T05:56:42;17.90;99.90
16283;DHT22;8249;48.708;9.030;2022-08-11T05:59:15;18.10;99.90
16283;DHT22;8249;48.708;9.030;2022-08-11T06:01:43;18.20;99.90
16283;DHT22;8249;48.708;9.030;2022-08-11T06:04:16;18.40;99.90
16283;DHT22;8249;48.708;9.030;2022-08-11T06:06:54;18.50;99.90
16283;DHT22;8249;48.708;9.030;2022-08-11T06:09:31;18.70;99.90
16283;DHT22;8249;48.708;9.030;2022-08-11T06:12:02;18.90;99.90
16283;DHT22;8249;48.708;9.030;2022-08-11T06:14:29;19.00;99.90
16283;DHT22;8249;48.708;9.030;2022-08-11T06:16:59;19.10;99.90
16283;DHT22;8249;48.708;9.030;2022-08-11T06:19:34;19.20;99.90
16283;DHT22;8249;48.708;9.030;2022-08-11T06:22:04;19.40;99.90
16283;DHT22;8249;48.708;9.030;2022-08-11T06:24:33;19.40;99.90
16283;DHT22;8249;48.708;9.030;2022-08-11T06:27:02;19.60;99.90
16283;DHT22;8249;48.708;9.030;2022-08-11T06:29:33;19.60;99.90
16283;DHT22;8249;48.708;9.030;2022-08-11T06:32:07;19.80;99.90
16283;DHT22;8249;48.708;9.030;2022-08-11T06:34:51;19.80;99.90
16283;DHT22;8249;48.708;9.030;2022-08-11T06:37:26;20.00;99.90
16283;DHT22;8249;48.708;9.030;2022-08-11T06:40:04;20.10;99.90
16283;DHT22;8249;48.708;9.030;2022-08-11T06:42:52;20.20;99.90
16283;DHT22;8249;48.708;9.030;2022-08-11T06:45:29;20.40;99.90
16283;DHT22;8249;48.708;9.030;2022-08-11T06:47:56;20.50;99.60
16283;DHT22;8249;48.708;9.030;2022-08-11T06:50:27;20.60;99.40
16283;DHT22;8249;48.708;9.030;2022-08-11T06:53:16;20.80;98.60
16283;DHT22;8249;48.708;9.030;2022-08-11T06:55:45;20.90;97.90
16283;DHT22;8249;48.708;9.030;2022-08-11T06:58:33;20.90;98.10
16283;DHT22;8249;48.708;9.030;2022-08-11T07:01:27;21.00;97.90
16283;DHT22;8249;48.708;9.030;2022-08-11T07:04:04;21.10;97.20
16283;DHT22;8249;48.708;9.030;2022-08-11T07:06:40;21.20;97.10
16283;DHT22;8249;48.708;9.030;2022-08-11T07:12:42;21.50;97.00
16283;DHT22;8249;48.708;9.030;2022-08-11T07:15:31;21.60;96.60
16283;DHT22;8249;48.708;9.030;2022-08-11T07:18:11;21.70;95.90
16283;DHT22;8249;48.708;9.030;2022-08-11T07:21:08;21.70;95.70
16283;DHT22;8249;48.708;9.030;2022-08-11T07:23:55;21.80;95.20
16283;DHT22;8249;48.708;9.030;2022-08-11T07:26:44;21.90;95.10
16283;DHT22;8249;48.708;9.030;2022-08-11T07:29:31;22.00;94.60
16283;DHT22;8249;48.708;9.030;2022-08-11T07:34:55;22.10;94.00
16283;DHT22;8249;48.708;9.030;2022-08-11T07:37:25;22.30;94.20
16283;DHT22;8249;48.708;9.030;2022-08-11T07:39:55;22.40;93.90
16283;DHT22;8249;48.708;9.030;2022-08-11T07:42:27;22.50;93.10
16283;DHT22;8249;48.708;9.030;2022-08-11T07:44:56;22.70;93.10
16283;DHT22;8249;48.708;9.030;2022-08-11T07:47:42;22.70;93.10
16283;DHT22;8249;48.708;9.030;2022-08-11T07:50:29;22.90;92.70
16283;DHT22;8249;48.708;9.030;2022-08-11T07:53:14;23.10;92.10
16283;DHT22;8249;48.708;9.030;2022-08-11T07:55:43;23.30;92.00
16283;DHT22;8249;48.708;9.030;2022-08-11T07:58:15;23.40;91.50
16283;DHT22;8249;48.708;9.030;2022-08-11T08:01:01;23.60;91.10
16283;DHT22;8249;48.708;9.030;2022-08-11T08:03:45;23.50;90.60
16283;DHT22;8249;48.708;9.030;2022-08-11T08:06:32;23.60;90.10
16283;DHT22;8249;48.708;9.030;2022-08-11T08:09:19;23.70;90.40
16283;DHT22;8249;48.708;9.030;2022-08-11T08:12:05;23.90;90.10
16283;DHT22;8249;48.708;9.030;2022-08-11T08:14:53;24.00;89.10
16283;DHT22;8249;48.708;9.030;2022-08-11T08:17:40;24.10;89.00
16283;DHT22;8249;48.708;9.030;2022-08-11T08:20:26;24.30;88.30
16283;DHT22;8249;48.708;9.030;2022-08-11T08:22:56;24.20;87.00
16283;DHT22;8249;48.708;9.030;2022-08-11T08:25:24;24.20;87.20
16283;DHT22;8249;48.708;9.030;2022-08-11T08:27:53;24.30;86.50
16283;DHT22;8249;48.708;9.030;2022-08-11T08:30:24;24.60;86.80
16283;DHT22;8249;48.708;9.030;2022-08-11T08:33:08;24.60;86.50
16283;DHT22;8249;48.708;9.030;2022-08-11T08:35:41;24.90;86.80
16283;DHT22;8249;48.708;9.030;2022-08-11T08:38:09;25.00;84.70
16283;DHT22;8249;48.708;9.030;2022-08-11T08:40:39;24.80;84.30
16283;DHT22;8249;48.708;9.030;2022-08-11T08:43:10;24.90;83.40
16283;DHT22;8249;48.708;9.030;2022-08-11T08:45:41;25.10;83.50
16283;DHT22;8249;48.708;9.030;2022-08-11T08:48:12;25.10;82.70
16283;DHT22;8249;48.708;9.030;2022-08-11T08:50:47;25.10;83.70
16283;DHT22;8249;48.708;9.030;2022-08-11T08:53:34;25.50;83.00
16283;DHT22;8249;48.708;9.030;2022-08-11T08:56:02;25.80;81.90
16283;DHT22;8249;48.708;9.030;2022-08-11T08:58:30;26.40;81.30
16283;DHT22;8249;48.708;9.030;2022-08-11T09:01:00;27.20;81.20
16283;DHT22;8249;48.708;9.030;2022-08-11T09:03:28;28.00;78.80
16283;DHT22;8249;48.708;9.030;2022-08-11T09:05:57;28.50;75.90
16283;DHT22;8249;48.708;9.030;2022-08-11T09:08:24;28.90;75.50
16283;DHT22;8249;48.708;9.030;2022-08-11T09:10:55;29.40;73.40
16283;DHT22;8249;48.708;9.030;2022-08-11T09:13:41;30.20;71.30
16283;DHT22;8249;48.708;9.030;2022-08-11T09:16:11;30.70;70.80
16283;DHT22;8249;48.708;9.030;2022-08-11T09:18:39;31.10;69.00
16283;DHT22;8249;48.708;9.030;2022-08-11T09:21:10;31.10;67.80
16283;DHT22;8249;48.708;9.030;2022-08-11T09:23:39;31.40;66.90
16283;DHT22;8249;48.708;9.030;2022-08-11T09:26:25;31.50;66.60
16283;DHT22;8249;48.708;9.030;2022-08-11T09:29:10;31.70;65.40
16283;DHT22;8249;48.708;9.030;2022-08-11T09:31:38;31.80;65.10
16283;DHT22;8249;48.708;9.030;2022-08-11T09:34:07;32.10;64.10
16283;DHT22;8249;48.708;9.030;2022-08-11T09:36:35;32.40;64.90
16283;DHT22;8249;48.708;9.030;2022-08-11T09:39:21;32.80;61.80
16283;DHT22;8249;48.708;9.030;2022-08-11T09:42:06;32.90;63.00
16283;DHT22;8249;48.708;9.030;2022-08-11T09:44:34;32.80;62.50
16283;DHT22;8249;48.708;9.030;2022-08-11T09:47:20;32.40;63.00
16283;DHT22;8249;48.708;9.030;2022-08-11T09:49:51;32.90;63.80
16283;DHT22;8249;48.708;9.030;2022-08-11T09:52:19;33.20;61.90
16283;DHT22;8249;48.708;9.030;2022-08-11T09:54:49;33.40;60.40
16283;DHT22;8249;48.708;9.030;2022-08-11T09:57:18;33.30;60.60
16283;DHT22;8249;48.708;9.030;2022-08-11T10:00:06;33.70;60.60
16283;DHT22;8249;48.708;9.030;2022-08-11T10:02:39;33.70;58.70
16283;DHT22;8249;48.708;9.030;2022-08-11T10:05:08;33.90;59.40
16283;DHT22;8249;48.708;9.030;2022-08-11T10:07:53;33.70;59.20
16283;DHT22;8249;48.708;9.030;2022-08-11T10:10:22;34.00;59.20
16283;DHT22;8249;48.708;9.030;2022-08-11T10:13:00;34.20;58.50
16283;DHT22;8249;48.708;9.030;2022-08-11T10:15:30;34.70;58.60
16283;DHT22;8249;48.708;9.030;2022-08-11T10:18:05;35.50;57.70
16283;DHT22;8249;48.708;9.030;2022-08-11T10:20:51;34.70;56.30
16283;DHT22;8249;48.708;9.030;2022-08-11T10:23:19;34.80;56.40
16283;DHT22;8249;48.708;9.030;2022-08-11T10:26:06;34.50;56.30
16283;DHT22;8249;48.708;9.030;2022-08-11T10:28:51;34.30;56.20
16283;DHT22;8249;48.708;9.030;2022-08-11T10:31:20;33.70;57.50
16283;DHT22;8249;48.708;9.030;2022-08-11T10:34:07;33.70;57.10
16283;DHT22;8249;48.708;9.030;2022-08-11T10:36:36;34.20;56.50
16283;DHT22;8249;48.708;9.030;2022-08-11T10:39:09;34.80;55.80
16283;DHT22;8249;48.708;9.030;2022-08-11T10:41:36;35.50;55.40
16283;DHT22;8249;48.708;9.030;2022-08-11T10:44:21;36.10;54.50
16283;DHT22;8249;48.708;9.030;2022-08-11T10:46:49;35.30;53.00
16283;DHT22;8249;48.708;9.030;2022-08-11T10:49:36;35.10;55.50
16283;DHT22;8249;48.708;9.030;2022-08-11T10:52:04;35.60;54.10
16283;DHT22;8249;48.708;9.030;2022-08-11T10:54:48;34.90;53.00
16283;DHT22;8249;48.708;9.030;2022-08-11T10:57:34;34.50;54.00
16283;DHT22;8249;48.708;9.030;2022-08-11T11:00:18;34.70;54.50
16283;DHT22;8249;48.708;9.030;2022-08-11T11:02:45;35.40;54.10
16283;DHT22;8249;48.708;9.030;2022-08-11T11:05:21;35.50;51.80
16283;DHT22;8249;48.708;9.030;2022-08-11T11:07:51;35.10;50.20
16283;DHT22;8249;48.708;9.030;2022-08-11T11:10:20;34.40;51.40
16283;DHT22;8249;48.708;9.030;2022-08-11T11:12:53;33.80;52.80
16283;DHT22;8249;48.708;9.030;2022-08-11T11:15:41;34.10;52.90
16283;DHT22;8249;48.708;9.030;2022-08-11T11:18:30;34.70;52.60
16283;DHT22;8249;48.708;9.030;2022-08-11T11:21:05;34.70;52.20
16283;DHT22;8249;48.708;9.030;2022-08-11T11:23:38;34.90;53.10
16283;DHT22;8249;48.708;9.030;2022-08-11T11:26:34;34.00;51.60
16283;DHT22;8249;48.708;9.030;2022-08-11T11:29:29;34.60;51.80
16283;DHT22;8249;48.708;9.030;2022-08-11T11:32:15;35.10;52.20
16283;DHT22;8249;48.708;9.030;2022-08-11T11:35:00;36.00;51.90
16283;DHT22;8249;48.708;9.030;2022-08-11T11:37:32;36.00;50.50
16283;DHT22;8249;48.708;9.030;2022-08-11T11:40:00;35.80;51.00
16283;DHT22;8249;48.708;9.030;2022-08-11T11:42:28;36.00;51.40
16283;DHT22;8249;48.708;9.030;2022-08-11T11:44:56;35.70;50.30
16283;DHT22;8249;48.708;9.030;2022-08-11T11:47:24;34.80;51.10
16283;DHT22;8249;48.708;9.030;2022-08-11T11:49:53;35.30;52.20
16283;DHT22;8249;48.708;9.030;2022-08-11T11:52:21;35.90;51.10
16283;DHT22;8249;48.708;9.030;2022-08-11T11:54:54;36.10;52.00
16283;DHT22;8249;48.708;9.030;2022-08-11T11:57:22;36.70;51.10
16283;DHT22;8249;48.708;9.030;2022-08-11T12:00:09;37.00;51.40
16283;DHT22;8249;48.708;9.030;2022-08-11T12:02:55;37.70;49.90
16283;DHT22;8249;48.708;9.030;2022-08-11T12:05:25;37.90;50.00
16283;DHT22;8249;48.708;9.030;2022-08-11T12:07:52;37.60;49.90
16283;DHT22;8249;48.708;9.030;2022-08-11T12:10:46;37.60;47.90
16283;DHT22;8249;48.708;9.030;2022-08-11T12:13:13;36.70;48.90
16283;DHT22;8249;48.708;9.030;2022-08-11T12:15:58;35.50;49.50
16283;DHT22;8249;48.708;9.030;2022-08-11T12:18:29;35.40;49.70
16283;DHT22;8249;48.708;9.030;2022-08-11T12:20:56;35.80;50.40
16283;DHT22;8249;48.708;9.030;2022-08-11T12:23:24;36.10;49.90
16283;DHT22;8249;48.708;9.030;2022-08-11T12:26:09;36.30;48.50
16283;DHT22;8249;48.708;9.030;2022-08-11T12:28:56;35.80;49.20
16283;DHT22;8249;48.708;9.030;2022-08-11T12:31:25;36.40;49.40
16283;DHT22;8249;48.708;9.030;2022-08-11T12:33:58;36.90;49.50
16283;DHT22;8249;48.708;9.030;2022-08-11T12:36:25;37.40;49.50
16283;DHT22;8249;48.708;9.030;2022-08-11T12:38:52;37.70;48.10
16283;DHT22;8249;48.708;9.030;2022-08-11T12:41:21;37.90;47.70
16283;DHT22;8249;48.708;9.030;2022-08-11T12:44:06;38.00;46.80
16283;DHT22;8249;48.708;9.030;2022-08-11T12:47:00;37.60;46.00
16283;DHT22;8249;48.708;9.030;2022-08-11T12:49:29;37.20;46.70
16283;DHT22;8249;48.708;9.030;2022-08-11T12:52:16;36.70;46.90
16283;DHT22;8249;48.708;9.030;2022-08-11T12:54:45;37.10;47.60
16283;DHT22;8249;48.708;9.030;2022-08-11T12:57:19;37.10;47.20
16283;DHT22;8249;48.708;9.030;2022-08-11T13:00:04;36.90;48.00
16283;DHT22;8249;48.708;9.030;2022-08-11T13:02:50;36.10;46.90
16283;DHT22;8249;48.708;9.030;2022-08-11T13:05:34;35.70;48.30
16283;DHT22;8249;48.708;9.030;2022-08-11T13:08:02;35.50;47.80
16283;DHT22;8249;48.708;9.030;2022-08-11T13:10:31;36.10;48.00
16283;DHT22;8249;48.708;9.030;2022-08-11T13:13:17;36.10;48.20
16283;DHT22;8249;48.708;9.030;2022-08-11T13:15:45;36.00;48.20
16283;DHT22;8249;48.708;9.030;2022-08-11T13:18:14;36.60;48.20
16283;DHT22;8249;48.708;9.030;2022-08-11T13:20:41;36.90;47.80
16283;DHT22;8249;48.708;9.030;2022-08-11T13:23:08;37.20;47.40
16283;DHT22;8249;48.708;9.030;2022-08-11T13:25:37;37.10;46.30
16283;DHT22;8249;48.708;9.030;2022-08-11T13:28:04;37.10;46.60
16283;DHT22;8249;48.708;9.030;2022-08-11T13:30:33;37.40;46.80
16283;DHT22;8249;48.708;9.030;2022-08-11T13:33:17;37.20;47.30
16283;DHT22;8249;48.708;9.030;2022-08-11T13:35:45;37.30;46.50
16283;DHT22;8249;48.708;9.030;2022-08-11T13:38:13;37.30;46.80
16283;DHT22;8249;48.708;9.030;2022-08-11T13:40:41;37.70;47.80
16283;DHT22;8249;48.708;9.030;2022-08-11T13:43:08;37.40;46.10
16283;DHT22;8249;48.708;9.030;2022-08-11T13:45:37;37.00;46.10
16283;DHT22;8249;48.708;9.030;2022-08-11T13:48:05;37.00;46.10
16283;DHT22;8249;48.708;9.030;2022-08-11T13:50:33;37.10;47.10
16283;DHT22;8249;48.708;9.030;2022-08-11T13:53:14;37.50;47.20
16283;DHT22;8249;48.708;9.030;2022-08-11T13:55:42;38.10;46.30
16283;DHT22;8249;48.708;9.030;2022-08-11T13:58:09;37.00;45.40
16283;DHT22;8249;48.708;9.030;2022-08-11T14:00:38;36.90;45.50
16283;DHT22;8249;48.708;9.030;2022-08-11T14:03:07;36.70;46.20
16283;DHT22;8249;48.708;9.030;2022-08-11T14:05:36;35.40;46.50
16283;DHT22;8249;48.708;9.030;2022-08-11T14:08:06;35.70;48.00
16283;DHT22;8249;48.708;9.030;2022-08-11T14:10:35;36.10;46.80
16283;DHT22;8249;48.708;9.030;2022-08-11T14:13:05;36.40;46.80
16283;DHT22;8249;48.708;9.030;2022-08-11T14:15:51;36.70;47.50
16283;DHT22;8249;48.708;9.030;2022-08-11T14:18:19;36.70;47.10
16283;DHT22;8249;48.708;9.030;2022-08-11T14:20:48;37.00;47.00
16283;DHT22;8249;48.708;9.030;2022-08-11T14:23:34;36.80;45.80
16283;DHT22;8249;48.708;9.030;2022-08-11T14:26:03;36.60;46.10
16283;DHT22;8249;48.708;9.030;2022-08-11T14:28:51;36.70;46.30
16283;DHT22;8249;48.708;9.030;2022-08-11T14:31:21;36.20;47.00
16283;DHT22;8249;48.708;9.030;2022-08-11T14:33:48;36.20;46.50
16283;DHT22;8249;48.708;9.030;2022-08-11T14:36:16;36.30;47.00
16283;DHT22;8249;48.708;9.030;2022-08-11T14:38:43;36.40;47.10
16283;DHT22;8249;48.708;9.030;2022-08-11T14:41:10;36.30;46.20
16283;DHT22;8249;48.708;9.030;2022-08-11T14:43:55;36.60;47.00
16283;DHT22;8249;48.708;9.030;2022-08-11T14:46:41;36.80;46.30
16283;DHT22;8249;48.708;9.030;2022-08-11T14:49:26;36.30;46.00
16283;DHT22;8249;48.708;9.030;2022-08-11T14:51:54;36.30;46.70
16283;DHT22;8249;48.708;9.030;2022-08-11T14:54:22;36.30;45.70
16283;DHT22;8249;48.708;9.030;2022-08-11T14:57:08;36.00;46.00
16283;DHT22;8249;48.708;9.030;2022-08-11T14:59:36;35.40;46.20
16283;DHT22;8249;48.708;9.030;2022-08-11T15:02:04;35.00;46.70
16283;DHT22;8249;48.708;9.030;2022-08-11T15:04:49;34.60;47.10
16283;DHT22;8249;48.708;9.030;2022-08-11T15:07:17;34.70;47.30
16283;DHT22;8249;48.708;9.030;2022-08-11T15:09:54;35.10;47.30
16283;DHT22;8249;48.708;9.030;2022-08-11T15:12:21;35.30;46.00
16283;DHT22;8249;48.708;9.030;2022-08-11T15:14:48;35.10;46.50
16283;DHT22;8249;48.708;9.030;2022-08-11T15:17:34;35.00;48.60
16283;DHT22;8249;48.708;9.030;2022-08-11T15:20:03;34.90;47.20
16283;DHT22;8249;48.708;9.030;2022-08-11T15:22:49;34.60;47.40
16283;DHT22;8249;48.708;9.030;2022-08-11T15:25:33;34.10;47.20
16283;DHT22;8249;48.708;9.030;2022-08-11T15:28:01;33.60;47.30
16283;DHT22;8249;48.708;9.030;2022-08-11T15:30:46;33.30;47.80
16283;DHT22;8249;48.708;9.030;2022-08-11T15:33:34;33.00;47.40
16283;DHT22;8249;48.708;9.030;2022-08-11T15:36:19;33.00;49.00
16283;DHT22;8249;48.708;9.030;2022-08-11T15:39:05;33.00;48.90
16283;DHT22;8249;48.708;9.030;2022-08-11T15:41:35;32.90;48.10
16283;DHT22;8249;48.708;9.030;2022-08-11T15:44:52;32.40;47.90
16283;DHT22;8249;48.708;9.030;2022-08-11T15:47:38;32.40;49.10
16283;DHT22;8249;48.708;9.030;2022-08-11T15:50:06;32.20;48.90
16283;DHT22;8249;48.708;9.030;2022-08-11T15:52:39;32.10;50.00
16283;DHT22;8249;48.708;9.030;2022-08-11T15:55:09;32.00;48.90
16283;DHT22;8249;48.708;9.030;2022-08-11T15:57:36;31.60;49.00
16283;DHT22;8249;48.708;9.030;2022-08-11T16:00:23;31.50;49.70
16283;DHT22;8249;48.708;9.030;2022-08-11T16:03:08;31.10;50.10
16283;DHT22;8249;48.708;9.030;2022-08-11T16:05:53;30.90;50.30
16283;DHT22;8249;48.708;9.030;2022-08-11T16:08:21;30.90;51.50
16283;DHT22;8249;48.708;9.030;2022-08-11T16:10:49;31.00;50.80
16283;DHT22;8249;48.708;9.030;2022-08-11T16:13:18;30.80;50.40
16283;DHT22;8249;48.708;9.030;2022-08-11T16:16:04;30.60;50.20
16283;DHT22;8249;48.708;9.030;2022-08-11T16:18:44;30.40;50.60
16283;DHT22;8249;48.708;9.030;2022-08-11T16:21:12;30.20;51.10
16283;DHT22;8249;48.708;9.030;2022-08-11T16:23:39;30.10;50.80
16283;DHT22;8249;48.708;9.030;2022-08-11T16:26:08;29.80;50.70
16283;DHT22;8249;48.708;9.030;2022-08-11T16:28:36;29.70;51.80
16283;DHT22;8249;48.708;9.030;2022-08-11T16:31:05;29.50;51.30
16283;DHT22;8249;48.708;9.030;2022-08-11T16:33:35;29.20;51.50
16283;DHT22;8249;48.708;9.030;2022-08-11T16:36:04;29.00;51.50
16283;DHT22;8249;48.708;9.030;2022-08-11T16:38:49;28.80;51.70
16283;DHT22;8249;48.708;9.030;2022-08-11T16:41:18;28.70;53.40
16283;DHT22;8249;48.708;9.030;2022-08-11T16:44:07;28.50;52.40
16283;DHT22;8249;48.708;9.030;2022-08-11T16:46:54;28.50;53.10
16283;DHT22;8249;48.708;9.030;2022-08-11T16:49:25;28.50;53.10
16283;DHT22;8249;48.708;9.030;2022-08-11T16:51:54;28.40;52.70
16283;DHT22;8249;48.708;9.030;2022-08-11T16:54:20;28.30;53.80
16283;DHT22;8249;48.708;9.030;2022-08-11T16:56:48;28.20;53.60
16283;DHT22;8249;48.708;9.030;2022-08-11T16:59:16;28.10;53.30
16283;DHT22;8249;48.708;9.030;2022-08-11T17:01:47;28.00;54.10
16283;DHT22;8249;48.708;9.030;2022-08-11T17:04:26;27.80;54.50
16283;DHT22;8249;48.708;9.030;2022-08-11T17:07:11;27.70;55.10
16283;DHT22;8249;48.708;9.030;2022-08-11T17:09:55;27.60;55.40
16283;DHT22;8249;48.708;9.030;2022-08-11T17:12:40;27.50;55.30
16283;DHT22;8249;48.708;9.030;2022-08-11T17:15:22;27.50;56.00
16283;DHT22;8249;48.708;9.030;2022-08-11T17:18:08;27.40;55.90
16283;DHT22;8249;48.708;9.030;2022-08-11T17:20:37;27.30;56.10
16283;DHT22;8249;48.708;9.030;2022-08-11T17:23:05;27.20;55.80
16283;DHT22;8249;48.708;9.030;2022-08-11T17:25:50;27.20;56.40
16283;DHT22;8249;48.708;9.030;2022-08-11T17:28:17;27.10;56.80
16283;DHT22;8249;48.708;9.030;2022-08-11T17:30:45;27.00;57.00
16283;DHT22;8249;48.708;9.030;2022-08-11T17:33:31;26.90;57.40
16283;DHT22;8249;48.708;9.030;2022-08-11T17:36:17;26.90;57.00
16283;DHT22;8249;48.708;9.030;2022-08-11T17:38:45;26.80;57.50
16283;DHT22;8249;48.708;9.030;2022-08-11T17:41:12;26.80;57.80
16283;DHT22;8249;48.708;9.030;2022-08-11T17:43:57;26.70;58.60
16283;DHT22;8249;48.708;9.030;2022-08-11T17:46:42;26.50;58.90
16283;DHT22;8249;48.708;9.030;2022-08-11T17:49:27;26.40;57.30
16283;DHT22;8249;48.708;9.030;2022-08-11T17:52:03;26.30;56.90
16283;DHT22;8249;48.708;9.030;2022-08-11T17:54:48;26.30;56.30
16283;DHT22;8249;48.708;9.030;2022-08-11T17:57:33;26.20;57.10